Time,TemperatureF,DewpointF,PressureIn,WindDirection,WindDirectionDegrees,WindSpeedMPH,WindSpeedGustMPH,Humidity,HourlyPrecipIn,Conditions,Clouds,dailyrainin,SolarRadiationWatts/m^2,SoftwareType,DateUTC
2013-02-01 00:27:00,22.7,7.0,30.46,WNW,300,6.0,15.0,50,0.00,,,0.00,0,weatherlink.com 1.10,2013-02-01 06:27:00,
2013-02-01 00:41:00,22.2,6.0,30.46,NNW,347,8.0,14.0,49,0.00,,,0.00,0,weatherlink.com 1.10,2013-02-01 06:41:00,
2013-02-01 00:57:00,21.9,6.0,30.46,NW,311,8.0,13.0,50,0.00,,,0.00,0,weatherlink.com 1.10,2013-02-01 06:57:00,
2013-02-01 01:11:00,21.5,6.0,30.46,NNW,333,7.0,11.0,52,0.00,,,0.00,0,weatherlink.com 1.10,2013-02-01 07:11:00,
2013-02-01 01:26:00,21.2,7.0,30.47,NNW,348,7.0,12.0,54,0.00,,,0.00,0,weatherlink.com 1.10,2013-02-01 07:26:00,
2013-02-01 01:56:00,20.4,6.0,30.47,NNW,342,2.0,12.0,54,0.00,,,0.00,0,weatherlink.com 1.10,2013-02-01 07:56:00,
2013-02-01 02:12:00,19.9,6.0,30.47,WNW,300,5.0,12.0,56,0.00,,,0.00,0,weatherlink.com 1.10,2013-02-01 08:12:00,
2013-02-01 02:27:00,19.6,7.0,30.47,NW,325,7.0,10.0,57,0.00,,,0.00,0,weatherlink.com 1.10,2013-02-01 08:27:00,
2013-02-01 02:42:00,19.5,8.0,30.47,NNW,348,4.0,8.0,62,0.00,,,0.00,0,weatherlink.com 1.10,2013-02-01 08:42:00,
2013-02-01 02:57:00,19.3,9.0,30.48,NW,323,4.0,7.0,63,0.00,,,0.00,0,weatherlink.com 1.10,2013-02-01 08:57:00,
2013-02-01 03:12:00,18.6,6.0,30.49,NW,306,3.0,11.0,59,0.00,,,0.00,0,weatherlink.com 1.10,2013-02-01 09:12:00,
2013-02-01 03:27:00,18.1,7.0,30.49,North,5,4.0,7.0,62,0.00,,,0.00,0,weatherlink.com 1.10,2013-02-01 09:27:00,
2013-02-01 03:42:00,17.7,6.0,30.50,NNW,342,7.0,10.0,61,0.00,,,0.00,0,weatherlink.com 1.10,2013-02-01 09:42:00,
2013-02-01 03:57:00,17.5,7.0,30.50,NW,323,2.0,8.0,63,0.00,,,0.00,0,weatherlink.com 1.10,2013-02-01 09:57:00,
2013-02-01 04:12:00,17.3,7.0,30.50,NW,325,2.0,7.0,63,0.00,,,0.00,0,weatherlink.com 1.10,2013-02-01 10:12:00,
2013-02-01 04:42:00,17.2,7.0,30.50,North,9,2.0,3.0,65,0.00,,,0.00,0,weatherlink.com 1.10,2013-02-01 10:42:00,
2013-02-01 04:57:00,17.0,7.0,30.50,NW,316,1.0,4.0,65,0.00,,,0.00,0,weatherlink.com 1.10,2013-02-01 10:57:00,
2013-02-01 05:12:00,16.8,7.0,30.50,NW,319,0.0,1.0,66,0.00,,,0.00,0,weatherlink.com 1.10,2013-02-01 11:12:00,
2013-02-01 05:27:00,16.2,7.0,30.50,NW,319,0.0,0.0,66,0.00,,,0.00,0,weatherlink.com 1.10,2013-02-01 11:27:00,
2013-02-01 05:42:00,15.8,6.0,30.52,NW,319,0.0,0.0,66,0.00,,,0.00,0,weatherlink.com 1.10,2013-02-01 11:42:00,
2013-02-01 05:57:00,15.4,7.0,30.51,NW,319,0.0,0.0,68,0.00,,,0.00,0,weatherlink.com 1.10,2013-02-01 11:57:00,
2013-02-01 06:12:00,15.2,8.0,30.52,NW,319,0.0,0.0,73,0.00,,,0.00,0,weatherlink.com 1.10,2013-02-01 12:12:00,
2013-02-01 06:27:00,15.1,9.0,30.53,NW,319,0.0,1.0,75,0.00,,,0.00,0,weatherlink.com 1.10,2013-02-01 12:27:00,
2013-02-01 06:42:00,15.8,7.0,30.53,NW,319,1.0,2.0,69,0.00,,,0.00,0,weatherlink.com 1.10,2013-02-01 12:42:00,
2013-02-01 06:57:00,15.7,8.0,30.54,NW,319,0.0,2.0,70,0.00,,,0.00,0,weatherlink.com 1.10,2013-02-01 12:57:00,
2013-02-01 07:12:00,15.3,9.0,30.55,NW,319,0.0,1.0,75,0.00,,,0.00,5,weatherlink.com 1.10,2013-02-01 13:12:00,
2013-02-01 07:27:00,15.0,8.0,30.55,NW,319,0.0,3.0,74,0.00,,,0.00,11,weatherlink.com 1.10,2013-02-01 13:27:00,
2013-02-01 07:42:00,15.1,9.0,30.56,NW,319,0.0,1.0,75,0.00,,,0.00,16,weatherlink.com 1.10,2013-02-01 13:42:00,
2013-02-01 07:57:00,15.2,8.0,30.56,NW,319,0.0,1.0,72,0.00,,,0.00,21,weatherlink.com 1.10,2013-02-01 13:57:00,
2013-02-01 08:12:00,15.5,7.0,30.56,NW,319,0.0,0.0,69,0.00,,,0.00,25,weatherlink.com 1.10,2013-02-01 14:12:00,
2013-02-01 08:27:00,16.0,7.0,30.56,NW,319,0.0,1.0,69,0.00,,,0.00,28,weatherlink.com 1.10,2013-02-01 14:27:00,
2013-02-01 08:43:00,16.7,8.0,30.56,NW,319,0.0,1.0,69,0.00,,,0.00,32,weatherlink.com 1.10,2013-02-01 14:43:00,
2013-02-01 08:57:00,17.6,7.0,30.56,NW,319,2.0,2.0,64,0.00,,,0.00,33,weatherlink.com 1.10,2013-02-01 14:57:00,
2013-02-01 09:12:00,18.0,7.0,30.56,NW,319,1.0,1.0,62,0.00,,,0.00,262,weatherlink.com 1.10,2013-02-01 15:12:00,
2013-02-01 09:28:00,18.9,7.0,30.56,NW,319,1.0,2.0,59,0.00,,,0.00,151,weatherlink.com 1.10,2013-02-01 15:28:00,
2013-02-01 09:42:00,19.4,7.0,30.56,NNW,338,0.0,3.0,60,0.00,,,0.00,178,weatherlink.com 1.10,2013-02-01 15:42:00,
2013-02-01 09:57:00,20.6,8.0,30.56,East,95,0.0,3.0,58,0.00,,,0.00,178,weatherlink.com 1.10,2013-02-01 15:57:00,
2013-02-01 10:12:00,22.6,8.0,30.56,South,185,0.0,3.0,54,0.00,,,0.00,445,weatherlink.com 1.10,2013-02-01 16:12:00,
2013-02-01 10:27:00,23.5,8.0,30.56,South,185,0.0,3.0,52,0.00,,,0.00,466,weatherlink.com 1.10,2013-02-01 16:27:00,
2013-02-01 10:43:00,24.8,8.0,30.55,South,184,1.0,3.0,48,0.00,,,0.00,374,weatherlink.com 1.10,2013-02-01 16:43:00,
2013-02-01 10:58:00,26.1,8.0,30.55,SSW,199,1.0,3.0,47,0.00,,,0.00,492,weatherlink.com 1.10,2013-02-01 16:58:00,
2013-02-01 11:13:00,27.4,10.0,30.54,SSE,161,0.0,3.0,48,0.00,,,0.00,594,weatherlink.com 1.10,2013-02-01 17:13:00,
2013-02-01 11:28:00,28.7,9.0,30.54,SSW,202,0.0,4.0,44,0.00,,,0.00,629,weatherlink.com 1.10,2013-02-01 17:28:00,
2013-02-01 11:43:00,29.9,10.0,30.52,South,180,1.0,3.0,43,0.00,,,0.00,475,weatherlink.com 1.10,2013-02-01 17:43:00,
2013-02-01 11:58:00,30.7,10.0,30.51,SE,132,1.0,5.0,42,0.00,,,0.00,640,weatherlink.com 1.10,2013-02-01 17:58:00,
2013-02-01 12:13:00,31.5,11.0,30.50,West,280,0.0,4.0,42,0.00,,,0.00,650,weatherlink.com 1.10,2013-02-01 18:13:00,
2013-02-01 12:28:00,33.3,11.0,30.48,SE,130,2.0,3.0,40,0.00,,,0.00,635,weatherlink.com 1.10,2013-02-01 18:28:00,
2013-02-01 12:43:00,34.4,10.0,30.47,South,177,0.0,5.0,36,0.00,,,0.00,631,weatherlink.com 1.10,2013-02-01 18:43:00,
2013-02-01 12:58:00,35.3,8.0,30.46,South,170,1.0,6.0,32,0.00,,,0.00,543,weatherlink.com 1.10,2013-02-01 18:58:00,
2013-02-01 13:13:00,35.4,10.0,30.45,SSE,168,0.0,2.0,35,0.00,,,0.00,49,weatherlink.com 1.10,2013-02-01 19:13:00,
2013-02-01 13:29:00,36.1,10.0,30.44,West,264,1.0,3.0,34,0.00,,,0.00,359,weatherlink.com 1.10,2013-02-01 19:29:00,
2013-02-01 13:43:00,36.6,10.0,30.43,South,182,3.0,5.0,33,0.00,,,0.00,223,weatherlink.com 1.10,2013-02-01 19:43:00,
2013-02-01 13:58:00,37.1,10.0,30.42,SSE,161,0.0,3.0,33,0.00,,,0.00,49,weatherlink.com 1.10,2013-02-01 19:58:00,
2013-02-01 14:13:00,38.6,11.0,30.41,SSE,163,1.0,4.0,32,0.00,,,0.00,399,weatherlink.com 1.10,2013-02-01 20:13:00,
2013-02-01 14:29:00,39.7,13.0,30.40,SSE,164,2.0,6.0,34,0.00,,,0.00,450,weatherlink.com 1.10,2013-02-01 20:29:00,
2013-02-01 14:44:00,40.4,12.0,30.39,South,182,0.0,3.0,31,0.00,,,0.00,439,weatherlink.com 1.10,2013-02-01 20:44:00,
2013-02-01 14:59:00,41.4,11.0,30.39,SSE,149,1.0,5.0,29,0.00,,,0.00,179,weatherlink.com 1.10,2013-02-01 20:59:00,
2013-02-01 15:14:00,41.3,12.0,30.38,South,187,2.0,4.0,30,0.00,,,0.00,327,weatherlink.com 1.10,2013-02-01 21:14:00,
2013-02-01 15:29:00,42.1,12.0,30.37,SE,127,0.0,5.0,29,0.00,,,0.00,309,weatherlink.com 1.10,2013-02-01 21:29:00,
2013-02-01 15:44:00,43.0,13.0,30.37,SSE,161,0.0,5.0,29,0.00,,,0.00,332,weatherlink.com 1.10,2013-02-01 21:44:00,
2013-02-01 15:59:00,43.7,12.0,30.36,South,171,1.0,3.0,27,0.00,,,0.00,267,weatherlink.com 1.10,2013-02-01 21:59:00,
2013-02-01 16:14:00,43.5,11.0,30.36,ESE,108,0.0,5.0,27,0.00,,,0.00,211,weatherlink.com 1.10,2013-02-01 22:14:00,
2013-02-01 16:29:00,43.6,12.0,30.35,SE,128,0.0,4.0,28,0.00,,,0.00,163,weatherlink.com 1.10,2013-02-01 22:29:00,
2013-02-01 16:44:00,43.7,12.0,30.33,SE,144,0.0,3.0,28,0.00,,,0.00,116,weatherlink.com 1.10,2013-02-01 22:44:00,
2013-02-01 16:59:00,43.5,14.0,30.34,South,184,0.0,2.0,30,0.00,,,0.00,49,weatherlink.com 1.10,2013-02-01 22:59:00,
2013-02-01 17:14:00,42.1,14.0,30.33,SSE,159,1.0,4.0,32,0.00,,,0.00,25,weatherlink.com 1.10,2013-02-01 23:14:00,
2013-02-01 17:29:00,40.3,14.0,30.32,South,169,2.0,5.0,34,0.00,,,0.00,12,weatherlink.com 1.10,2013-02-01 23:29:00,
2013-02-01 17:44:00,38.4,14.0,30.31,SSE,147,1.0,5.0,37,0.00,,,0.00,0,weatherlink.com 1.10,2013-02-01 23:44:00,
2013-02-01 17:59:00,37.3,14.0,30.31,SSE,167,0.0,4.0,38,0.00,,,0.00,0,weatherlink.com 1.10,2013-02-01 23:59:00,
2013-02-01 18:14:00,36.5,14.0,30.30,SE,146,1.0,3.0,39,0.00,,,0.00,0,weatherlink.com 1.10,2013-02-02 00:14:00,
2013-02-01 18:29:00,35.8,14.0,30.31,South,184,0.0,1.0,40,0.00,,,0.00,0,weatherlink.com 1.10,2013-02-02 00:29:00,
2013-02-01 18:44:00,35.2,13.0,30.31,SE,146,0.0,3.0,40,0.00,,,0.00,0,weatherlink.com 1.10,2013-02-02 00:44:00,
2013-02-01 18:59:00,34.8,13.0,30.31,SSE,157,0.0,3.0,40,0.00,,,0.00,0,weatherlink.com 1.10,2013-02-02 00:59:00,
2013-02-01 19:14:00,34.3,14.0,30.32,SSE,157,0.0,3.0,43,0.00,,,0.00,0,weatherlink.com 1.10,2013-02-02 01:14:00,
2013-02-01 19:29:00,33.9,13.0,30.32,SSE,161,1.0,2.0,43,0.00,,,0.00,0,weatherlink.com 1.10,2013-02-02 01:29:00,
2013-02-01 19:44:00,33.8,14.0,30.32,SSE,161,0.0,2.0,45,0.00,,,0.00,0,weatherlink.com 1.10,2013-02-02 01:44:00,
2013-02-01 19:59:00,33.6,15.0,30.31,SSE,149,0.0,2.0,46,0.00,,,0.00,0,weatherlink.com 1.10,2013-02-02 01:59:00,
2013-02-01 20:14:00,33.4,15.0,30.31,SSE,159,1.0,3.0,46,0.00,,,0.00,0,weatherlink.com 1.10,2013-02-02 02:14:00,
2013-02-01 20:29:00,33.2,15.0,30.30,South,172,2.0,5.0,47,0.00,,,0.00,0,weatherlink.com 1.10,2013-02-02 02:29:00,
2013-02-01 20:45:00,32.9,15.0,30.30,South,181,0.0,3.0,47,0.00,,,0.00,0,weatherlink.com 1.10,2013-02-02 02:45:00,
2013-02-01 20:59:00,32.6,15.0,30.30,SSE,166,0.0,3.0,48,0.00,,,0.00,0,weatherlink.com 1.10,2013-02-02 02:59:00,
2013-02-01 21:14:00,32.1,15.0,30.30,South,169,0.0,4.0,50,0.00,,,0.00,0,weatherlink.com 1.10,2013-02-02 03:14:00,
2013-02-01 21:29:00,31.2,16.0,30.29,SSE,155,0.0,4.0,53,0.00,,,0.00,0,weatherlink.com 1.10,2013-02-02 03:29:00,
2013-02-01 21:44:00,30.5,16.0,30.28,South,177,0.0,3.0,54,0.00,,,0.00,0,weatherlink.com 1.10,2013-02-02 03:44:00,
2013-02-01 22:00:00,30.1,16.0,30.30,South,178,0.0,2.0,55,0.00,,,0.00,0,weatherlink.com 1.10,2013-02-02 04:00:00,
2013-02-01 22:15:00,29.6,16.0,30.29,South,182,0.0,3.0,57,0.00,,,0.00,0,weatherlink.com 1.10,2013-02-02 04:15:00,
2013-02-01 22:29:00,29.6,16.0,30.29,South,182,0.0,1.0,58,0.00,,,0.00,0,weatherlink.com 1.10,2013-02-02 04:29:00,
2013-02-01 22:44:00,29.6,16.0,30.29,South,182,0.0,2.0,58,0.00,,,0.00,0,weatherlink.com 1.10,2013-02-02 04:44:00,
2013-02-01 22:59:00,29.2,17.0,30.29,South,182,0.0,1.0,61,0.00,,,0.00,0,weatherlink.com 1.10,2013-02-02 04:59:00,
2013-02-01 23:14:00,29.2,18.0,30.32,South,182,0.0,2.0,63,0.00,,,0.00,0,weatherlink.com 1.10,2013-02-02 05:14:00,
2013-02-01 23:29:00,29.3,17.0,30.31,South,182,0.0,0.0,61,0.00,,,0.00,0,weatherlink.com 1.10,2013-02-02 05:29:00,
2013-02-01 23:44:00,29.2,17.0,30.30,South,182,0.0,0.0,61,0.00,,,0.00,0,weatherlink.com 1.10,2013-02-02 05:44:00,
2013-02-01 23:59:00,29.0,18.0,30.30,South,182,0.0,1.0,64,0.00,,,0.00,0,weatherlink.com 1.10,2013-02-02 05:59:00,